Time;durP1;ratioP1;P1;durP2;ratioP2;P2;SDS_P1;SDS_P2;PMS_P1;PMS_P2;Temp;Humidity;BMP_temperature;BMP_pressure;BME280_temperature;BME280_humidity;BME280_pressure;Samples;Min_cycle;Max_cycle;Signal;HPM_P1;HPM_P2
2021/08/28 00:01:03;;;;;;;0.10;0.10;;;;;;;14.03;97.90;101761.47;10522555;28;20284;-65
2021/08/28 00:06:03;;;;;;;0.10;0.10;;;;;;;14.03;98.36;101764.13;10505800;28;20031;-65
2021/08/28 00:11:04;;;;;;;0.10;0.10;;;;;;;14.03;98.25;101765.97;10505463;28;20021;-65
2021/08/28 00:16:05;;;;;;;0.10;0.10;;;;;;;14.04;98.54;101762.28;10523868;28;20077;-65
2021/08/28 00:21:06;;;;;;;0.10;0.10;;;;;;;14.01;98.69;101763.44;10523698;28;20056;-65
2021/08/28 00:26:06;;;;;;;0.00;0.00;;;;;;;14.00;98.57;101768.97;10501030;28;20428;-65
2021/08/28 00:31:07;;;;;;;0.10;0.10;;;;;;;13.97;99.06;101759.41;10527875;28;20081;-66
2021/08/28 00:36:07;;;;;;;0.10;0.10;;;;;;;13.96;98.82;101763.09;10518392;28;20024;-65
2021/08/28 00:41:08;;;;;;;0.10;0.10;;;;;;;13.95;98.81;101768.59;10529570;28;20113;-65
2021/08/28 00:46:09;;;;;;;0.10;0.10;;;;;;;13.93;99.35;101771.47;10529292;28;20111;-65
2021/08/28 00:51:10;;;;;;;0.10;0.10;;;;;;;13.92;99.46;101777.78;10524119;28;20454;-65
2021/08/28 00:56:11;;;;;;;0.10;0.10;;;;;;;13.94;99.60;101770.44;10513101;28;20107;-65
2021/08/28 01:01:18;;;;;;;0.10;0.10;;;;;;;13.93;99.40;101776.81;10500948;28;20137;-65
2021/08/28 01:06:51;;;;;;;0.00;0.00;;;;;;;13.95;99.58;101780.16;10540122;28;20070;-65
2021/08/28 01:12:10;;;;;;;0.10;0.10;;;;;;;13.95;99.71;101774.78;10521389;28;20024;-65
2021/08/28 01:17:13;;;;;;;0.10;0.10;;;;;;;13.93;99.34;101782.16;10539373;28;20106;-65
2021/08/28 01:22:18;;;;;;;0.10;0.10;;;;;;;13.94;99.31;101786.53;10538929;28;20108;-65
2021/08/28 01:28:20;;;;;;;0.10;0.10;;;;;;;13.94;99.26;101788.38;10522431;28;20021;-65
2021/08/28 01:33:21;;;;;;;0.10;0.10;;;;;;;13.93;98.96;101792.88;10397185;28;20052;-65
2021/08/28 01:38:22;;;;;;;0.10;0.10;;;;;;;13.91;99.65;101792.19;10500934;28;20016;-65
2021/08/28 01:43:23;;;;;;;0.10;0.10;;;;;;;13.91;99.28;101802.06;10525819;28;20553;-65
2021/08/28 01:48:23;;;;;;;0.10;0.10;;;;;;;13.88;99.05;101800.53;10538274;28;20115;-65
2021/08/28 01:53:24;;;;;;;0.10;0.10;;;;;;;13.86;99.18;101802.53;10537622;28;20132;-65
2021/08/28 01:58:28;;;;;;;0.10;0.10;;;;;;;13.84;99.53;101806.34;10520740;28;20800;-65
2021/08/28 02:03:29;;;;;;;0.08;0.08;;;;;;;13.79;98.99;101799.66;10515050;28;20017;-65
2021/08/28 02:08:40;;;;;;;0.10;0.10;;;;;;;13.76;99.19;101808.00;10521177;28;20024;-65
2021/08/28 02:13:53;;;;;;;0.10;0.10;;;;;;;13.73;99.21;101805.63;10493763;28;20032;-65
2021/08/28 02:19:02;;;;;;;0.10;0.10;;;;;;;13.73;99.27;101802.09;10490140;28;20024;-65
2021/08/28 02:24:08;;;;;;;0.10;0.10;;;;;;;13.76;99.46;101791.94;10516516;28;20012;-64
2021/08/28 02:29:18;;;;;;;0.10;0.10;;;;;;;13.77;99.45;101798.13;10513637;28;20028;-65
2021/08/28 02:34:20;;;;;;;0.00;0.00;;;;;;;13.77;99.24;101790.91;10504369;28;20115;-65
2021/08/28 02:39:22;;;;;;;0.10;0.10;;;;;;;13.74;99.12;101783.19;10492250;28;20467;-65
2021/08/28 02:44:25;;;;;;;0.10;0.10;;;;;;;13.67;99.46;101786.66;10515901;28;20021;-65
2021/08/28 02:49:26;;;;;;;0.00;0.00;;;;;;;13.64;99.77;101792.31;10512116;28;20055;-65
2021/08/28 02:54:28;;;;;;;0.10;0.10;;;;;;;13.59;99.48;101788.28;10515149;28;20059;-65
2021/08/28 02:59:30;;;;;;;0.10;0.10;;;;;;;13.55;99.38;101789.56;10491658;28;20078;-65
2021/08/28 03:04:31;;;;;;;0.10;0.10;;;;;;;13.51;99.79;101785.53;10512740;28;20081;-65
2021/08/28 03:09:33;;;;;;;0.10;0.10;;;;;;;13.53;99.62;101791.59;10521798;28;20434;-65
2021/08/28 03:14:34;;;;;;;0.10;0.10;;;;;;;13.55;99.79;101794.91;10514847;28;20027;-65
2021/08/28 03:19:35;;;;;;;0.00;0.00;;;;;;;13.56;99.56;101788.59;10505116;28;20029;-65
2021/08/28 03:24:37;;;;;;;0.10;0.10;;;;;;;13.59;99.90;101799.00;10512413;28;20024;-65
2021/08/28 03:29:38;;;;;;;0.10;0.10;;;;;;;13.62;99.58;101802.34;10512957;28;20024;-65
2021/08/28 03:34:38;;;;;;;0.10;0.10;;;;;;;13.62;99.93;101808.56;10510127;28;20032;-65
2021/08/28 03:39:40;;;;;;;0.10;0.10;;;;;;;13.65;99.66;101815.44;10531489;28;20016;-65
2021/08/28 03:44:40;;;;;;;0.10;0.10;;;;;;;13.65;99.79;101810.91;10531976;28;20032;-65
2021/08/28 03:49:41;;;;;;;0.10;0.10;;;;;;;13.67;99.79;101808.06;10533988;28;20081;-65
2021/08/28 03:54:42;;;;;;;0.10;0.10;;;;;;;13.68;100.00;101818.63;10533648;28;20024;-65
2021/08/28 03:59:42;;;;;;;0.00;0.00;;;;;;;13.69;100.00;101819.47;10532888;28;20081;-65
2021/08/28 04:04:42;;;;;;;0.10;0.10;;;;;;;13.70;99.60;101830.03;10532999;28;20032;-65
2021/08/28 04:09:43;;;;;;;0.05;0.05;;;;;;;13.70;99.77;101826.50;10539464;28;20265;-65
2021/08/28 04:14:43;;;;;;;0.10;0.10;;;;;;;13.68;99.83;101824.00;10532850;28;20213;-65
2021/08/28 04:19:43;;;;;;;0.10;0.10;;;;;;;13.66;99.88;101834.00;10499306;28;20987;-65
2021/08/28 04:24:44;;;;;;;0.10;0.10;;;;;;;13.66;99.74;101838.53;10499250;28;20028;-65
2021/08/28 04:29:44;;;;;;;0.10;0.10;;;;;;;13.68;99.83;101844.56;10499183;28;20017;-65
2021/08/28 04:34:44;;;;;;;0.10;0.10;;;;;;;13.69;100.00;101841.72;10498646;28;20036;-65
2021/08/28 04:39:45;;;;;;;0.10;0.10;;;;;;;13.72;100.00;101845.94;10498752;28;20753;-65
2021/08/28 04:44:45;;;;;;;0.10;0.10;;;;;;;13.75;99.73;101848.31;10497900;28;20024;-65
2021/08/28 04:49:45;;;;;;;0.10;0.10;;;;;;;13.80;99.68;101854.03;10498404;28;20083;-65
2021/08/28 04:54:46;;;;;;;0.10;0.10;;;;;;;13.86;99.36;101853.41;10479978;28;20075;-65
2021/08/28 04:59:46;;;;;;;0.10;0.10;;;;;;;13.92;99.27;101852.78;10498071;28;20035;-65
2021/08/28 05:04:46;;;;;;;0.10;0.10;;;;;;;13.95;98.78;101852.47;10501026;28;20047;-66
2021/08/28 05:09:47;;;;;;;0.10;0.10;;;;;;;13.99;98.81;101864.56;10538790;28;20115;-66
2021/08/28 05:14:47;;;;;;;0.10;0.10;;;;;;;14.02;98.39;101864.25;10539347;28;20023;-65
2021/08/28 05:19:47;;;;;;;0.00;0.00;;;;;;;14.06;98.23;101861.25;10538842;28;20198;-65
2021/08/28 05:24:48;;;;;;;0.03;0.03;;;;;;;14.11;96.91;101870.50;10529617;28;20426;-65
2021/08/28 05:29:48;;;;;;;0.10;0.10;;;;;;;14.14;96.89;101864.84;10496738;28;20035;-65
2021/08/28 05:34:49;;;;;;;0.10;0.10;;;;;;;14.13;96.80;101864.97;10496237;28;20024;-65
2021/08/28 05:39:49;;;;;;;0.10;0.10;;;;;;;14.15;97.17;101865.69;10496800;28;20028;-65
2021/08/28 05:44:49;;;;;;;0.10;0.10;;;;;;;14.19;97.38;101867.88;10495584;28;20038;-65
2021/08/28 05:49:50;;;;;;;0.10;0.10;;;;;;;14.22;97.23;101875.63;10564622;28;20443;-65
2021/08/28 05:54:50;;;;;;;0.10;0.10;;;;;;;14.29;97.23;101877.66;10579702;28;20038;-65
2021/08/28 05:59:51;;;;;;;0.00;0.00;;;;;;;14.39;96.66;101868.50;10579732;28;20482;-65
2021/08/28 06:04:51;;;;;;;0.10;0.10;;;;;;;14.46;96.75;101868.72;10579226;28;20026;-66
2021/08/28 06:09:51;;;;;;;0.00;0.00;;;;;;;14.46;96.46;101863.38;10552896;28;20028;-65
2021/08/28 06:14:52;;;;;;;0.10;0.10;;;;;;;14.46;96.61;101882.13;10552709;28;20024;-65
2021/08/28 06:19:53;;;;;;;0.10;0.10;;;;;;;14.48;96.84;101883.63;10536637;28;20513;-65
2021/08/28 06:24:53;;;;;;;0.00;0.00;;;;;;;14.56;95.92;101877.50;10536898;28;20270;-65
2021/08/28 06:29:54;;;;;;;0.10;0.10;;;;;;;14.59;96.13;101882.53;10570853;28;20016;-65
2021/08/28 06:34:54;;;;;;;0.10;0.10;;;;;;;14.61;96.13;101885.09;10560527;28;20047;-65
2021/08/28 06:39:54;;;;;;;0.00;0.00;;;;;;;14.61;96.27;101901.16;10547678;28;20023;-65
2021/08/28 06:44:54;;;;;;;0.10;0.10;;;;;;;14.65;96.11;101897.16;10569858;28;20032;-64
2021/08/28 06:49:55;;;;;;;0.10;0.10;;;;;;;14.69;95.83;101894.00;10551339;28;20016;-65
2021/08/28 06:54:55;;;;;;;0.10;0.10;;;;;;;14.77;95.25;101887.00;10535121;28;20028;-65
2021/08/28 06:59:55;;;;;;;0.00;0.00;;;;;;;14.83;95.39;101891.72;10549936;28;20027;-65
2021/08/28 07:04:56;;;;;;;0.07;0.07;;;;;;;14.87;95.72;101893.91;10576804;28;20024;-64
2021/08/28 07:09:56;;;;;;;0.10;0.10;;;;;;;14.93;95.00;101895.94;10560365;28;20726;-64
2021/08/28 07:14:57;;;;;;;0.10;0.10;;;;;;;14.96;94.67;101889.44;10563259;28;20543;-65
2021/08/28 07:19:57;;;;;;;0.10;0.10;;;;;;;14.99;94.92;101899.00;10566107;28;20020;-65
2021/08/28 07:24:59;;;;;;;0.10;0.10;;;;;;;14.96;95.48;101899.31;10533793;28;20088;-65
2021/08/28 07:29:59;;;;;;;0.10;0.10;;;;;;;15.03;95.92;101905.72;10495474;28;20051;-65
2021/08/28 07:34:59;;;;;;;0.10;0.10;;;;;;;15.07;95.44;101901.72;10522326;28;20065;-65
2021/08/28 07:40:00;;;;;;;0.10;0.10;;;;;;;15.13;95.54;101904.56;10533972;28;20286;-65
2021/08/28 07:45:00;;;;;;;0.00;0.00;;;;;;;15.11;95.18;101897.69;10539212;28;20084;-65
2021/08/28 07:50:02;;;;;;;0.10;0.10;;;;;;;15.16;94.84;101901.56;10542372;28;20596;-65
2021/08/28 07:55:03;;;;;;;0.10;0.10;;;;;;;15.13;94.74;101909.94;10531182;28;20390;-65
2021/08/28 08:00:05;;;;;;;0.10;0.10;;;;;;;15.08;95.67;101904.22;10499982;28;20024;-65
2021/08/28 08:05:06;;;;;;;0.00;0.00;;;;;;;15.08;95.63;101911.44;10499744;28;20044;-65
2021/08/28 08:10:07;;;;;;;0.10;0.10;;;;;;;15.16;95.76;101906.09;10499887;28;20043;-65
2021/08/28 08:15:08;;;;;;;0.10;0.10;;;;;;;15.24;95.69;101905.25;10499995;28;20083;-65
2021/08/28 08:20:09;;;;;;;0.10;0.10;;;;;;;15.26;95.28;101909.47;10508310;28;20470;-65
2021/08/28 08:25:10;;;;;;;0.10;0.10;;;;;;;15.26;96.05;101900.59;10541051;28;20110;-65
2021/08/28 08:30:11;;;;;;;0.10;0.10;;;;;;;15.23;96.34;101923.22;10540764;28;20024;-65
2021/08/28 08:35:11;;;;;;;0.10;0.10;;;;;;;15.26;96.57;101912.16;10534108;28;20463;-65
2021/08/28 08:40:13;;;;;;;0.10;0.10;;;;;;;15.27;96.49;101918.34;10498743;28;20024;-65
2021/08/28 08:45:15;;;;;;;0.10;0.10;;;;;;;15.34;96.65;101924.78;10508761;28;20269;-65
2021/08/28 08:50:16;;;;;;;0.10;0.10;;;;;;;15.36;96.52;101917.41;10539747;28;20209;-65
2021/08/28 08:55:17;;;;;;;0.10;0.10;;;;;;;15.39;96.57;101928.66;10538961;28;20032;-65
2021/08/28 09:00:17;;;;;;;0.10;0.10;;;;;;;15.49;97.05;101928.50;10539348;28;20024;-65
2021/08/28 09:05:18;;;;;;;0.10;0.10;;;;;;;15.63;96.48;101938.59;10539488;28;20032;-65
2021/08/28 09:10:18;;;;;;;0.10;0.10;;;;;;;15.62;95.61;101925.34;10539609;28;20047;-65
2021/08/28 09:15:18;;;;;;;0.10;0.10;;;;;;;15.55;95.67;101927.81;10539319;28;20032;-65
2021/08/28 09:20:21;;;;;;;0.10;0.10;;;;;;;15.71;96.10;101926.22;10539989;28;20035;-65
2021/08/28 09:25:23;;;;;;;0.10;0.10;;;;;;;15.82;95.79;101929.44;10538997;28;20113;-65
2021/08/28 09:30:27;;;;;;;0.00;0.00;;;;;;;15.81;95.20;101927.72;10525546;28;20024;-65
2021/08/28 09:35:32;;;;;;;0.10;0.10;;;;;;;15.79;95.26;101929.72;10503539;28;20077;-65
2021/08/28 09:40:41;;;;;;;0.10;0.10;;;;;;;15.70;94.17;101921.84;10538039;28;20055;-65
2021/08/28 09:45:42;;;;;;;0.10;0.10;;;;;;;15.71;94.23;101934.28;10537804;28;20020;-66
2021/08/28 09:50:46;;;;;;;0.08;0.08;;;;;;;15.80;93.71;101926.06;10537866;28;20027;-66
2021/08/28 09:55:54;;;;;;;0.10;0.10;;;;;;;16.02;94.21;101934.44;10537182;28;20471;-66
2021/08/28 10:00:59;;;;;;;0.10;0.10;;;;;;;16.29;93.07;101923.38;10537167;28;20024;-65
2021/08/28 10:06:01;;;;;;;0.10;0.10;;;;;;;16.59;90.99;101933.56;10521259;28;20032;-65
2021/08/28 10:11:02;;;;;;;0.00;0.00;;;;;;;16.83;91.09;101911.16;10579259;28;20371;-66
2021/08/28 10:16:03;;;;;;;0.10;0.10;;;;;;;16.87;88.00;101928.59;10543242;28;20436;-65
2021/08/28 10:21:04;;;;;;;0.00;0.00;;;;;;;16.89;90.23;101924.75;10558868;28;20028;-65
2021/08/28 10:26:09;;;;;;;0.10;0.10;;;;;;;16.73;88.69;101924.78;10535936;28;20024;-65
2021/08/28 10:31:12;;;;;;;0.00;0.00;;;;;;;16.66;89.45;101931.84;10519900;28;20068;-65
2021/08/28 10:36:12;;;;;;;0.08;0.08;;;;;;;16.87;88.38;101923.22;10535764;28;20028;-65
2021/08/28 10:41:14;;;;;;;0.10;0.10;;;;;;;17.14;86.87;101928.19;10563553;28;20114;-65
2021/08/28 10:46:20;;;;;;;0.10;0.10;;;;;;;17.35;nan;101927.56;10563051;28;20038;-65
2021/08/28 10:51:25;;;;;;;0.00;0.00;;;;;;;17.39;86.25;101933.41;10577598;28;20093;-65
2021/08/28 10:56:56;;;;;;;0.10;0.10;;;;;;;17.13;86.93;101929.19;10568961;28;20015;-65
2021/08/28 11:02:13;;;;;;;0.00;0.00;;;;;;;16.98;88.47;101930.94;10564302;28;20486;-65
2021/08/28 11:07:18;;;;;;;0.00;0.00;;;;;;;16.63;88.66;101940.25;10576988;28;20030;-65
2021/08/28 11:12:19;;;;;;;0.00;0.00;;;;;;;16.30;90.13;101940.31;10545991;28;20043;-65
2021/08/28 11:17:36;;;;;;;0.10;0.10;;;;;;;16.28;90.59;101945.03;10534433;28;20020;-65
2021/08/28 11:22:37;;;;;;;0.10;0.10;;;;;;;16.43;89.01;101945.16;10541462;28;20038;-65
2021/08/28 11:27:47;;;;;;;0.10;0.10;;;;;;;16.47;88.50;101943.84;10576598;28;20034;-67
2021/08/28 11:33:00;;;;;;;0.10;0.10;;;;;;;16.55;89.12;101951.03;10546250;28;20027;-65
2021/08/28 11:38:05;;;;;;;0.10;0.10;;;;;;;16.53;90.11;101948.53;10576525;28;20034;-65
2021/08/28 11:43:09;;;;;;;0.10;0.10;;;;;;;16.64;88.46;101942.78;10568534;28;20023;-65
2021/08/28 11:48:14;;;;;;;0.08;0.08;;;;;;;16.63;87.73;101942.94;10534230;28;20012;-65
2021/08/28 11:53:25;;;;;;;0.00;0.00;;;;;;;16.49;88.28;101952.56;10518635;28;20386;-65
2021/08/28 11:58:25;;;;;;;0.00;0.00;;;;;;;16.49;89.61;101963.31;10533894;28;20178;-65
2021/08/28 12:03:25;;;;;;;0.10;0.10;;;;;;;16.49;91.11;101955.25;10533674;28;20020;-65
2021/08/28 12:08:25;;;;;;;0.00;0.00;;;;;;;16.36;90.59;101952.25;10533399;28;20065;-65
2021/08/28 12:13:26;;;;;;;0.10;0.10;;;;;;;16.32;92.41;101950.91;10533392;28;20024;-65
2021/08/28 12:18:26;;;;;;;0.00;0.00;;;;;;;16.41;90.11;101958.81;10557823;28;20024;-65
2021/08/28 12:23:27;;;;;;;0.00;0.00;;;;;;;16.54;90.14;101958.25;10575574;28;20027;-65
2021/08/28 12:28:30;;;;;;;0.00;0.00;;;;;;;16.58;89.33;101958.75;10578187;28;20022;-65
2021/08/28 12:33:30;;;;;;;0.10;0.10;;;;;;;16.85;88.65;101957.56;10583645;28;20222;-65
2021/08/28 12:38:32;;;;;;;0.10;0.10;;;;;;;16.87;86.56;101948.31;10583862;28;20096;-65
2021/08/28 12:43:32;;;;;;;0.10;0.10;;;;;;;16.90;86.92;101956.03;10583082;28;20026;-65
2021/08/28 12:48:33;;;;;;;0.10;0.10;;;;;;;16.89;86.86;101958.88;10544957;28;20031;-64
2021/08/28 12:53:39;;;;;;;0.00;0.00;;;;;;;16.88;87.12;101952.66;10579110;28;20031;-66
2021/08/28 12:58:39;;;;;;;0.10;0.10;;;;;;;16.98;87.39;101947.91;10582143;28;20023;-65
2021/08/28 13:03:47;;;;;;;0.00;0.00;;;;;;;16.93;85.37;101949.47;10581633;28;20081;-65
2021/08/28 13:08:48;;;;;;;0.10;0.10;;;;;;;16.88;86.94;101941.06;10581421;28;20351;-65
2021/08/28 13:14:07;;;;;;;0.10;0.10;;;;;;;16.68;87.16;101940.59;10550537;28;20028;-65
2021/08/28 13:19:15;;;;;;;0.10;0.10;;;;;;;16.46;88.96;101951.06;10539082;28;20039;-65
2021/08/28 13:24:17;;;;;;;0.10;0.10;;;;;;;16.23;90.61;101948.25;10538664;28;20016;-65
2021/08/28 13:29:24;;;;;;;0.00;0.00;;;;;;;16.21;92.48;101939.50;10539645;28;20421;-65
2021/08/28 13:34:25;;;;;;;0.03;0.03;;;;;;;16.28;90.53;101950.41;10544133;28;20023;-65
2021/08/28 13:39:25;;;;;;;0.10;0.10;;;;;;;16.20;91.17;101945.88;10580799;28;20020;-66
2021/08/28 13:44:25;;;;;;;0.10;0.10;;;;;;;16.23;91.78;101948.25;10577228;28;20025;-66
2021/08/28 13:49:26;;;;;;;0.10;0.10;;;;;;;16.30;91.06;101949.22;10539370;28;20019;-66
2021/08/28 13:54:26;;;;;;;0.10;0.10;;;;;;;16.35;90.29;101946.03;10579927;28;20024;-66
2021/08/28 13:59:26;;;;;;;0.00;0.00;;;;;;;16.24;91.65;101957.97;10556090;28;20016;-65
2021/08/28 14:04:27;;;;;;;0.10;0.10;;;;;;;15.98;90.72;101955.44;10537363;28;20391;-66
2021/08/28 14:09:27;;;;;;;0.10;0.10;;;;;;;15.95;91.21;101955.78;10537011;28;20020;-66
2021/08/28 14:14:27;;;;;;;0.10;0.10;;;;;;;15.88;90.78;101946.69;10550610;28;20106;-66
2021/08/28 14:19:28;;;;;;;0.10;0.10;;;;;;;15.89;91.38;101950.25;10573007;28;20042;-65
2021/08/28 14:24:28;;;;;;;0.10;0.10;;;;;;;15.90;91.48;101951.91;10536404;28;20031;-65
2021/08/28 14:29:29;;;;;;;0.10;0.10;;;;;;;15.85;90.99;101949.72;10532116;28;20027;-65
2021/08/28 14:34:30;;;;;;;0.10;0.10;;;;;;;15.97;91.22;101950.22;10524983;28;20119;-66
2021/08/28 14:39:30;;;;;;;0.10;0.10;;;;;;;16.02;90.75;101945.19;10535005;28;20111;-65
2021/08/28 14:44:31;;;;;;;0.00;0.00;;;;;;;16.07;89.67;101953.59;10535240;28;20032;-65
2021/08/28 14:49:31;;;;;;;0.10;0.10;;;;;;;16.14;90.29;101948.38;10535687;28;20399;-65
2021/08/28 14:54:32;;;;;;;0.10;0.10;;;;;;;16.03;90.21;101946.91;10534775;28;20023;-66
2021/08/28 14:59:32;;;;;;;0.10;0.10;;;;;;;16.01;89.80;101946.22;10535110;28;20138;-65
2021/08/28 15:04:32;;;;;;;0.10;0.10;;;;;;;16.04;90.10;101948.56;10534976;28;20085;-66
2021/08/28 15:09:33;;;;;;;0.10;0.10;;;;;;;15.88;90.46;101952.06;10511552;28;20024;-65
2021/08/28 15:14:33;;;;;;;0.10;0.10;;;;;;;15.70;91.40;101962.97;10573190;28;20114;-65
2021/08/28 15:19:35;;;;;;;0.10;0.10;;;;;;;15.54;92.36;101963.75;10569892;28;20385;-65
2021/08/28 15:24:35;;;;;;;0.10;0.10;;;;;;;15.38;93.48;101972.59;10564245;28;20392;-65
2021/08/28 15:29:35;;;;;;;0.10;0.10;;;;;;;15.37;94.38;101976.28;10573755;28;20049;-65
2021/08/28 15:34:36;;;;;;;0.10;0.10;;;;;;;15.30;93.53;101967.22;10576179;28;20051;-65
2021/08/28 15:39:36;;;;;;;0.10;0.10;;;;;;;15.23;93.75;101965.31;10558983;28;20020;-65
2021/08/28 15:44:39;;;;;;;0.10;0.10;;;;;;;15.21;93.67;101962.78;10533378;28;20270;-65
2021/08/28 15:49:39;;;;;;;0.10;0.10;;;;;;;15.20;93.43;101968.34;10533675;28;20130;-65
2021/08/28 15:54:39;;;;;;;0.10;0.10;;;;;;;15.20;93.85;101968.34;10533032;28;20101;-65
2021/08/28 15:59:40;;;;;;;0.10;0.10;;;;;;;15.14;93.91;101959.09;10526645;28;20028;-65
2021/08/28 16:04:40;;;;;;;0.10;0.10;;;;;;;15.15;93.91;101968.81;10531121;28;20059;-65
2021/08/28 16:09:41;;;;;;;0.10;0.10;;;;;;;15.10;94.18;101973.84;10535152;28;20062;-65
2021/08/28 16:14:41;;;;;;;0.10;0.10;;;;;;;15.00;94.94;101965.06;10547836;28;20437;-65
2021/08/28 16:19:41;;;;;;;0.10;0.10;;;;;;;14.90;94.17;101973.22;10540611;28;20054;-64
2021/08/28 16:24:42;;;;;;;0.10;0.10;;;;;;;14.81;94.79;101966.16;10548988;28;20039;-65
2021/08/28 16:29:42;;;;;;;0.10;0.10;;;;;;;14.78;94.38;101985.25;10583033;28;20032;-65
2021/08/28 16:34:42;;;;;;;0.10;0.10;;;;;;;14.73;93.48;101974.97;10561353;28;20028;-65
2021/08/28 16:39:44;;;;;;;0.10;0.10;;;;;;;14.71;93.97;101977.81;10541249;28;20028;-64
2021/08/28 16:44:46;;;;;;;0.10;0.10;;;;;;;14.68;94.29;101972.75;10540557;28;20027;-65
2021/08/28 16:49:46;;;;;;;0.10;0.10;;;;;;;14.67;94.76;101971.09;10540190;28;20032;-65
2021/08/28 16:54:48;;;;;;;0.10;0.10;;;;;;;14.65;95.57;101962.34;10547677;28;20039;-66
2021/08/28 16:59:48;;;;;;;0.10;0.10;;;;;;;14.64;95.87;101975.94;10582006;28;20482;-66
2021/08/28 17:04:50;;;;;;;0.10;0.10;;;;;;;14.59;96.11;101970.19;10555426;28;20080;-65
2021/08/28 17:09:51;;;;;;;0.10;0.10;;;;;;;14.52;96.08;101969.16;10581565;28;20740;-66
2021/08/28 17:14:51;;;;;;;0.00;0.00;;;;;;;14.46;96.37;101976.78;10580899;28;20030;-65
2021/08/28 17:19:51;;;;;;;0.10;0.10;;;;;;;14.41;97.10;101976.41;10581558;28;20028;-66
2021/08/28 17:24:52;;;;;;;0.10;0.10;;;;;;;14.37;96.85;101979.53;10581465;28;20035;-65
2021/08/28 17:29:52;;;;;;;0.08;0.08;;;;;;;14.30;97.67;101978.50;10561927;28;20024;-64
2021/08/28 17:34:52;;;;;;;0.10;0.10;;;;;;;14.25;97.98;101976.28;10566813;28;20042;-64
2021/08/28 17:39:53;;;;;;;0.10;0.10;;;;;;;14.19;98.45;101977.72;10553856;28;20030;-64
2021/08/28 17:44:54;;;;;;;0.10;0.10;;;;;;;14.12;98.99;101982.03;10564160;28;20031;-65
2021/08/28 17:49:54;;;;;;;0.10;0.10;;;;;;;14.09;99.00;101979.66;10579840;28;20102;-64
2021/08/28 17:54:54;;;;;;;0.10;0.10;;;;;;;14.09;98.93;101993.06;10579652;28;20054;-64
2021/08/28 17:59:55;;;;;;;0.10;0.10;;;;;;;14.09;99.14;101985.03;10570666;28;20016;-65
2021/08/28 18:04:55;;;;;;;0.10;0.10;;;;;;;14.08;98.92;101990.53;10536830;28;20360;-65
2021/08/28 18:09:56;;;;;;;0.10;0.10;;;;;;;14.06;98.53;101984.50;10535117;28;20078;-65
2021/08/28 18:14:57;;;;;;;0.10;0.10;;;;;;;14.07;98.34;101994.22;10543518;28;20085;-65
2021/08/28 18:19:57;;;;;;;0.10;0.10;;;;;;;14.07;98.32;102000.41;10537425;28;20016;-64
2021/08/28 18:24:57;;;;;;;0.10;0.10;;;;;;;14.07;98.26;102004.91;10517685;28;20479;-64
2021/08/28 18:29:58;;;;;;;0.10;0.10;;;;;;;14.05;98.21;102002.41;10535260;28;20317;-64
2021/08/28 18:34:59;;;;;;;0.10;0.10;;;;;;;14.01;98.79;102001.84;10533393;28;20064;-65
2021/08/28 18:39:59;;;;;;;0.20;0.20;;;;;;;14.02;98.76;102005.38;10517909;28;20043;-65
2021/08/28 18:45:00;;;;;;;0.10;0.10;;;;;;;14.00;99.22;102005.53;10536238;28;20490;-65
2021/08/28 18:50:01;;;;;;;0.10;0.10;;;;;;;13.98;99.44;102001.31;10536375;28;20028;-65
2021/08/28 18:55:01;;;;;;;0.10;0.10;;;;;;;13.94;98.89;102000.81;10536299;28;20085;-65
2021/08/28 19:00:04;;;;;;;0.10;0.10;;;;;;;13.93;98.95;102001.81;10535837;28;20031;-65
2021/08/28 19:05:05;;;;;;;0.00;0.00;;;;;;;13.89;99.34;101999.56;10538049;28;20024;-64
2021/08/28 19:10:05;;;;;;;0.00;0.00;;;;;;;13.88;99.11;102004.09;10565083;28;20028;-65
2021/08/28 19:15:06;;;;;;;0.10;0.10;;;;;;;13.87;99.05;101997.03;10516661;28;20028;-64
2021/08/28 19:20:07;;;;;;;0.10;0.10;;;;;;;13.87;98.75;102004.22;10534286;28;20433;-65
2021/08/28 19:25:08;;;;;;;0.10;0.10;;;;;;;13.87;98.62;101998.88;10534224;28;20032;-66
2021/08/28 19:30:09;;;;;;;0.10;0.10;;;;;;;13.88;98.41;101997.91;10534072;28;20518;-66
2021/08/28 19:35:10;;;;;;;0.10;0.10;;;;;;;13.88;98.55;101995.22;10533807;28;20023;-66
2021/08/28 19:40:11;;;;;;;0.10;0.10;;;;;;;13.87;98.04;101990.84;10571977;28;20023;-66
2021/08/28 19:45:11;;;;;;;0.10;0.10;;;;;;;13.87;98.14;101996.19;10576131;28;20035;-66
2021/08/28 19:50:11;;;;;;;0.10;0.10;;;;;;;13.87;98.32;101997.03;10490589;28;20017;-66
2021/08/28 19:55:12;;;;;;;0.10;0.10;;;;;;;13.87;98.04;101997.03;10492021;28;20033;-66
2021/08/28 20:00:13;;;;;;;0.00;0.00;;;;;;;13.89;97.96;102002.25;10491903;28;20092;-66
2021/08/28 20:05:14;;;;;;;0.10;0.10;;;;;;;13.90;98.00;101986.00;10503225;28;20032;-65
2021/08/28 20:10:15;;;;;;;0.10;0.10;;;;;;;13.91;97.90;101986.88;10533522;28;20024;-65
2021/08/28 20:15:15;;;;;;;0.10;0.10;;;;;;;13.91;97.20;101985.03;10533099;28;20437;-65
2021/08/28 20:20:15;;;;;;;0.10;0.10;;;;;;;13.92;97.22;101983.19;10533872;28;20020;-65
2021/08/28 20:25:16;;;;;;;0.10;0.10;;;;;;;13.93;96.84;101975.03;10533112;28;20028;-65
2021/08/28 20:30:16;;;;;;;0.10;0.10;;;;;;;13.94;97.06;101973.19;10515317;28;20109;-66
2021/08/28 20:35:17;;;;;;;0.10;0.10;;;;;;;13.95;96.67;101970.31;10533066;28;20024;-65
2021/08/28 20:40:17;;;;;;;0.10;0.10;;;;;;;13.97;96.76;101957.63;10515616;28;20440;-65
2021/08/28 20:45:18;;;;;;;0.10;0.10;;;;;;;14.04;96.52;101972.06;10533145;28;20020;-65
2021/08/28 20:50:19;;;;;;;0.10;0.10;;;;;;;14.10;96.06;101959.06;10535406;28;20035;-66
2021/08/28 20:55:19;;;;;;;0.10;0.10;;;;;;;14.12;96.55;101960.59;10524522;28;20032;-66
2021/08/28 21:00:19;;;;;;;0.10;0.10;;;;;;;14.15;96.50;101959.47;10518683;28;20070;-66
2021/08/28 21:05:20;;;;;;;0.10;0.10;;;;;;;14.15;95.70;101964.81;10497842;28;20274;-66
2021/08/28 21:10:21;;;;;;;0.10;0.10;;;;;;;14.15;95.49;101954.09;10523330;28;20800;-65
2021/08/28 21:15:21;;;;;;;0.10;0.10;;;;;;;14.12;95.57;101951.72;10524925;28;20261;-65
2021/08/28 21:20:22;;;;;;;0.10;0.10;;;;;;;14.10;94.76;101948.34;10514649;28;20028;-66
2021/08/28 21:25:22;;;;;;;0.10;0.10;;;;;;;14.09;95.19;101960.06;10513070;28;20035;-66
2021/08/28 21:30:23;;;;;;;0.03;0.03;;;;;;;14.06;95.23;101952.34;10514640;28;20027;-66
2021/08/28 21:35:23;;;;;;;0.10;0.10;;;;;;;14.03;95.32;101954.34;10534736;28;20035;-65
2021/08/28 21:40:25;;;;;;;0.00;0.00;;;;;;;14.01;95.79;101955.47;10515533;28;20025;-66
2021/08/28 21:45:25;;;;;;;0.10;0.10;;;;;;;13.99;95.37;101960.13;10509949;28;20126;-65
2021/08/28 21:50:25;;;;;;;0.10;0.10;;;;;;;13.96;95.42;101955.09;10517160;28;20408;-65
2021/08/28 21:55:26;;;;;;;0.10;0.10;;;;;;;13.93;95.57;101950.03;10512210;28;20025;-66
2021/08/28 22:00:30;;;;;;;0.00;0.00;;;;;;;13.93;95.25;101947.38;10519714;28;20023;-67
2021/08/28 22:05:31;;;;;;;0.10;0.10;;;;;;;13.93;95.00;101944.69;10529042;28;20127;-66
2021/08/28 22:10:31;;;;;;;0.10;0.10;;;;;;;13.94;95.25;101941.88;10517668;28;20018;-66
2021/08/28 22:15:32;;;;;;;0.10;0.10;;;;;;;13.93;95.25;101942.00;10507849;28;20038;-66
2021/08/28 22:20:33;;;;;;;0.10;0.10;;;;;;;13.93;95.28;101937.53;10510987;28;20285;-66
2021/08/28 22:25:33;;;;;;;0.10;0.10;;;;;;;13.97;95.18;101930.84;10532335;28;20368;-66
2021/08/28 22:30:34;;;;;;;0.10;0.10;;;;;;;13.98;95.52;101924.47;10526799;28;20276;-65
2021/08/28 22:35:35;;;;;;;0.00;0.00;;;;;;;14.00;95.63;101924.34;10514502;28;20020;-66
2021/08/28 22:40:35;;;;;;;0.10;0.10;;;;;;;13.94;95.71;101917.75;10518637;28;20025;-66
2021/08/28 22:45:35;;;;;;;0.10;0.10;;;;;;;13.89;95.52;101914.69;10516502;28;20107;-66
2021/08/28 22:50:36;;;;;;;0.10;0.10;;;;;;;13.86;96.03;101914.19;10512998;28;20031;-66
2021/08/28 22:55:36;;;;;;;0.10;0.10;;;;;;;13.81;96.03;101925.34;10505727;28;20028;-66
2021/08/28 23:00:37;;;;;;;0.10;0.10;;;;;;;13.77;96.32;101913.25;10522265;28;20278;-66
2021/08/28 23:05:37;;;;;;;0.10;0.10;;;;;;;13.72;96.40;101905.66;10500936;28;20056;-66